sensor_id;sensor_type;location;lat;lon;timestamp;P1;durP1;ratioP1;P2;durP2;ratioP2
40755;SDS011;26461;45.630;9.418;2024-01-30T00:00:33;82.55;;;39.80;;
40755;SDS011;26461;45.630;9.418;2024-01-30T00:03:44;68.55;;;40.30;;
40755;SDS011;26461;45.630;9.418;2024-01-30T00:06:50;73.97;;;44.75;;
40755;SDS011;26461;45.630;9.418;2024-01-30T00:10:02;57.03;;;40.50;;
40755;SDS011;26461;45.630;9.418;2024-01-30T00:13:12;70.30;;;37.60;;
40755;SDS011;26461;45.630;9.418;2024-01-30T00:16:23;62.67;;;38.42;;
40755;SDS011;26461;45.630;9.418;2024-01-30T00:19:33;61.92;;;41.28;;
40755;SDS011;26461;45.630;9.418;2024-01-30T00:22:38;65.78;;;36.83;;
40755;SDS011;26461;45.630;9.418;2024-01-30T00:25:49;58.00;;;35.28;;
40755;SDS011;26461;45.630;9.418;2024-01-30T00:28:54;50.33;;;33.83;;
40755;SDS011;26461;45.630;9.418;2024-01-30T00:31:59;56.25;;;33.10;;
40755;SDS011;26461;45.630;9.418;2024-01-30T00:35:09;58.13;;;35.30;;
40755;SDS011;26461;45.630;9.418;2024-01-30T00:38:14;50.95;;;33.53;;
40755;SDS011;26461;45.630;9.418;2024-01-30T00:41:24;56.85;;;33.78;;
40755;SDS011;26461;45.630;9.418;2024-01-30T00:44:35;50.95;;;33.30;;
40755;SDS011;26461;45.630;9.418;2024-01-30T00:47:42;54.60;;;33.72;;
40755;SDS011;26461;45.630;9.418;2024-01-30T00:50:52;49.65;;;33.45;;
40755;SDS011;26461;45.630;9.418;2024-01-30T00:53:57;52.58;;;33.17;;
40755;SDS011;26461;45.630;9.418;2024-01-30T00:57:07;51.38;;;32.13;;
40755;SDS011;26461;45.630;9.418;2024-01-30T01:00:18;52.92;;;32.05;;
40755;SDS011;26461;45.630;9.418;2024-01-30T01:03:30;49.05;;;32.03;;
40755;SDS011;26461;45.630;9.418;2024-01-30T01:06:34;47.05;;;31.45;;
40755;SDS011;26461;45.630;9.418;2024-01-30T01:09:44;52.63;;;32.80;;
40755;SDS011;26461;45.630;9.418;2024-01-30T01:12:49;56.60;;;31.70;;
40755;SDS011;26461;45.630;9.418;2024-01-30T01:15:59;48.67;;;31.08;;
40755;SDS011;26461;45.630;9.418;2024-01-30T01:19:04;50.60;;;31.27;;
40755;SDS011;26461;45.630;9.418;2024-01-30T01:22:15;56.90;;;33.15;;
40755;SDS011;26461;45.630;9.418;2024-01-30T01:25:21;57.03;;;32.65;;
40755;SDS011;26461;45.630;9.418;2024-01-30T01:28:31;43.85;;;28.75;;
40755;SDS011;26461;45.630;9.418;2024-01-30T01:31:36;53.97;;;33.42;;
40755;SDS011;26461;45.630;9.418;2024-01-30T01:34:49;50.47;;;31.17;;
40755;SDS011;26461;45.630;9.418;2024-01-30T01:37:59;58.17;;;30.48;;
40755;SDS011;26461;45.630;9.418;2024-01-30T01:41:09;58.15;;;34.05;;
40755;SDS011;26461;45.630;9.418;2024-01-30T01:44:19;52.53;;;33.20;;
40755;SDS011;26461;45.630;9.418;2024-01-30T01:47:29;50.47;;;28.50;;
40755;SDS011;26461;45.630;9.418;2024-01-30T01:50:38;45.50;;;28.08;;
40755;SDS011;26461;45.630;9.418;2024-01-30T01:53:48;46.95;;;28.50;;
40755;SDS011;26461;45.630;9.418;2024-01-30T01:56:59;42.05;;;28.27;;
40755;SDS011;26461;45.630;9.418;2024-01-30T02:00:09;44.47;;;27.73;;
40755;SDS011;26461;45.630;9.418;2024-01-30T02:03:19;53.47;;;28.15;;
40755;SDS011;26461;45.630;9.418;2024-01-30T02:06:31;39.47;;;25.95;;
40755;SDS011;26461;45.630;9.418;2024-01-30T02:09:42;44.13;;;27.55;;
40755;SDS011;26461;45.630;9.418;2024-01-30T02:12:52;42.78;;;26.48;;
40755;SDS011;26461;45.630;9.418;2024-01-30T02:15:57;41.70;;;24.42;;
40755;SDS011;26461;45.630;9.418;2024-01-30T02:19:07;39.83;;;25.15;;
40755;SDS011;26461;45.630;9.418;2024-01-30T02:22:17;36.85;;;23.77;;
40755;SDS011;26461;45.630;9.418;2024-01-30T02:25:33;49.05;;;30.10;;
40755;SDS011;26461;45.630;9.418;2024-01-30T02:28:45;46.08;;;27.95;;
40755;SDS011;26461;45.630;9.418;2024-01-30T02:31:55;42.20;;;27.92;;
40755;SDS011;26461;45.630;9.418;2024-01-30T02:35:05;40.78;;;25.95;;
40755;SDS011;26461;45.630;9.418;2024-01-30T02:38:10;38.67;;;25.92;;
40755;SDS011;26461;45.630;9.418;2024-01-30T02:41:20;45.78;;;27.83;;
40755;SDS011;26461;45.630;9.418;2024-01-30T02:44:30;41.03;;;27.23;;
40755;SDS011;26461;45.630;9.418;2024-01-30T02:47:40;33.10;;;23.23;;
40755;SDS011;26461;45.630;9.418;2024-01-30T02:50:50;46.00;;;26.77;;
40755;SDS011;26461;45.630;9.418;2024-01-30T02:54:00;43.63;;;23.83;;
40755;SDS011;26461;45.630;9.418;2024-01-30T02:57:10;35.58;;;22.17;;
40755;SDS011;26461;45.630;9.418;2024-01-30T03:00:20;31.00;;;21.25;;
40755;SDS011;26461;45.630;9.418;2024-01-30T03:03:30;30.90;;;20.73;;
40755;SDS011;26461;45.630;9.418;2024-01-30T03:06:35;30.55;;;18.13;;
40755;SDS011;26461;45.630;9.418;2024-01-30T03:09:45;27.00;;;18.38;;
40755;SDS011;26461;45.630;9.418;2024-01-30T03:12:54;33.80;;;19.88;;
40755;SDS011;26461;45.630;9.418;2024-01-30T03:16:04;28.80;;;18.75;;
40755;SDS011;26461;45.630;9.418;2024-01-30T03:19:15;31.23;;;21.10;;
40755;SDS011;26461;45.630;9.418;2024-01-30T03:22:25;26.77;;;18.90;;
40755;SDS011;26461;45.630;9.418;2024-01-30T03:25:35;29.00;;;17.70;;
40755;SDS011;26461;45.630;9.418;2024-01-30T03:28:44;25.55;;;17.35;;
40755;SDS011;26461;45.630;9.418;2024-01-30T03:31:54;25.92;;;16.83;;
40755;SDS011;26461;45.630;9.418;2024-01-30T03:34:59;26.52;;;17.92;;
40755;SDS011;26461;45.630;9.418;2024-01-30T03:38:08;42.80;;;20.33;;
40755;SDS011;26461;45.630;9.418;2024-01-30T03:41:18;26.85;;;17.73;;
40755;SDS011;26461;45.630;9.418;2024-01-30T03:44:28;30.85;;;18.63;;
40755;SDS011;26461;45.630;9.418;2024-01-30T03:47:38;34.10;;;18.13;;
40755;SDS011;26461;45.630;9.418;2024-01-30T03:50:48;30.77;;;18.80;;
40755;SDS011;26461;45.630;9.418;2024-01-30T03:53:58;27.70;;;18.35;;
40755;SDS011;26461;45.630;9.418;2024-01-30T03:57:08;32.63;;;19.17;;
40755;SDS011;26461;45.630;9.418;2024-01-30T04:00:18;28.25;;;16.65;;
40755;SDS011;26461;45.630;9.418;2024-01-30T04:03:28;26.65;;;18.73;;
40755;SDS011;26461;45.630;9.418;2024-01-30T04:06:38;30.60;;;18.90;;
40755;SDS011;26461;45.630;9.418;2024-01-30T04:09:48;25.95;;;16.13;;
40755;SDS011;26461;45.630;9.418;2024-01-30T04:12:58;24.13;;;16.83;;
40755;SDS011;26461;45.630;9.418;2024-01-30T04:16:08;30.52;;;18.25;;
40755;SDS011;26461;45.630;9.418;2024-01-30T04:19:28;27.33;;;17.58;;
40755;SDS011;26461;45.630;9.418;2024-01-30T04:22:33;22.42;;;15.90;;
40755;SDS011;26461;45.630;9.418;2024-01-30T04:25:43;22.42;;;17.00;;
40755;SDS011;26461;45.630;9.418;2024-01-30T04:28:53;28.67;;;16.05;;
40755;SDS011;26461;45.630;9.418;2024-01-30T04:32:03;28.00;;;16.85;;
40755;SDS011;26461;45.630;9.418;2024-01-30T04:35:13;24.13;;;17.77;;
40755;SDS011;26461;45.630;9.418;2024-01-30T04:38:23;26.38;;;15.50;;
40755;SDS011;26461;45.630;9.418;2024-01-30T04:41:33;27.08;;;15.88;;
40755;SDS011;26461;45.630;9.418;2024-01-30T04:44:43;23.40;;;15.73;;
40755;SDS011;26461;45.630;9.418;2024-01-30T04:47:53;26.73;;;16.63;;
40755;SDS011;26461;45.630;9.418;2024-01-30T04:51:03;23.52;;;15.73;;
40755;SDS011;26461;45.630;9.418;2024-01-30T04:54:13;28.42;;;15.23;;
40755;SDS011;26461;45.630;9.418;2024-01-30T04:57:23;19.98;;;14.70;;
40755;SDS011;26461;45.630;9.418;2024-01-30T05:00:33;25.52;;;15.85;;
40755;SDS011;26461;45.630;9.418;2024-01-30T05:03:42;27.77;;;17.55;;
40755;SDS011;26461;45.630;9.418;2024-01-30T05:06:48;23.27;;;15.85;;
40755;SDS011;26461;45.630;9.418;2024-01-30T05:09:58;26.70;;;16.30;;
40755;SDS011;26461;45.630;9.418;2024-01-30T05:13:08;22.73;;;15.23;;
40755;SDS011;26461;45.630;9.418;2024-01-30T05:16:17;17.80;;;15.02;;
40755;SDS011;26461;45.630;9.418;2024-01-30T05:19:27;22.63;;;14.95;;
40755;SDS011;26461;45.630;9.418;2024-01-30T05:22:37;24.52;;;15.20;;
40755;SDS011;26461;45.630;9.418;2024-01-30T05:25:47;24.15;;;16.88;;
40755;SDS011;26461;45.630;9.418;2024-01-30T05:28:57;20.83;;;14.98;;
40755;SDS011;26461;45.630;9.418;2024-01-30T05:32:07;26.00;;;14.13;;
40755;SDS011;26461;45.630;9.418;2024-01-30T05:35:12;23.65;;;15.60;;
40755;SDS011;26461;45.630;9.418;2024-01-30T05:38:22;30.40;;;17.23;;
40755;SDS011;26461;45.630;9.418;2024-01-30T05:41:32;32.50;;;20.27;;
40755;SDS011;26461;45.630;9.418;2024-01-30T05:44:42;28.70;;;19.85;;
40755;SDS011;26461;45.630;9.418;2024-01-30T05:47:52;28.90;;;18.67;;
40755;SDS011;26461;45.630;9.418;2024-01-30T05:51:02;28.20;;;17.17;;
40755;SDS011;26461;45.630;9.418;2024-01-30T05:54:08;25.85;;;17.25;;
40755;SDS011;26461;45.630;9.418;2024-01-30T05:57:18;29.42;;;16.70;;
40755;SDS011;26461;45.630;9.418;2024-01-30T06:00:28;31.80;;;18.50;;
40755;SDS011;26461;45.630;9.418;2024-01-30T06:03:38;22.30;;;17.38;;
40755;SDS011;26461;45.630;9.418;2024-01-30T06:06:47;24.85;;;18.40;;
40755;SDS011;26461;45.630;9.418;2024-01-30T06:09:52;24.17;;;19.33;;
40755;SDS011;26461;45.630;9.418;2024-01-30T06:13:02;25.70;;;17.52;;
40755;SDS011;26461;45.630;9.418;2024-01-30T06:16:12;25.13;;;16.83;;
40755;SDS011;26461;45.630;9.418;2024-01-30T06:19:22;24.38;;;17.33;;
40755;SDS011;26461;45.630;9.418;2024-01-30T06:22:26;24.88;;;17.95;;
40755;SDS011;26461;45.630;9.418;2024-01-30T06:25:37;29.98;;;17.30;;
40755;SDS011;26461;45.630;9.418;2024-01-30T06:28:46;24.98;;;16.38;;
40755;SDS011;26461;45.630;9.418;2024-01-30T06:31:57;22.88;;;16.25;;
40755;SDS011;26461;45.630;9.418;2024-01-30T06:35:07;25.27;;;15.13;;
40755;SDS011;26461;45.630;9.418;2024-01-30T06:38:17;23.13;;;16.00;;
40755;SDS011;26461;45.630;9.418;2024-01-30T06:41:27;19.38;;;14.73;;
40755;SDS011;26461;45.630;9.418;2024-01-30T06:44:37;27.35;;;15.82;;
40755;SDS011;26461;45.630;9.418;2024-01-30T06:47:47;29.20;;;16.48;;
40755;SDS011;26461;45.630;9.418;2024-01-30T06:50:57;27.27;;;16.20;;
40755;SDS011;26461;45.630;9.418;2024-01-30T06:54:07;19.33;;;13.85;;
40755;SDS011;26461;45.630;9.418;2024-01-30T06:57:17;24.75;;;14.52;;
40755;SDS011;26461;45.630;9.418;2024-01-30T07:00:27;22.38;;;15.90;;
40755;SDS011;26461;45.630;9.418;2024-01-30T07:03:37;29.60;;;16.73;;
40755;SDS011;26461;45.630;9.418;2024-01-30T07:06:47;25.65;;;15.82;;
40755;SDS011;26461;45.630;9.418;2024-01-30T07:09:57;19.45;;;13.57;;
40755;SDS011;26461;45.630;9.418;2024-01-30T07:13:07;24.58;;;15.50;;
40755;SDS011;26461;45.630;9.418;2024-01-30T07:16:18;23.60;;;15.48;;
40755;SDS011;26461;45.630;9.418;2024-01-30T07:19:28;23.35;;;15.85;;
40755;SDS011;26461;45.630;9.418;2024-01-30T07:22:38;25.48;;;19.33;;
40755;SDS011;26461;45.630;9.418;2024-01-30T07:25:49;33.40;;;21.45;;
40755;SDS011;26461;45.630;9.418;2024-01-30T07:28:53;32.67;;;21.33;;
40755;SDS011;26461;45.630;9.418;2024-01-30T07:32:03;31.42;;;19.15;;
40755;SDS011;26461;45.630;9.418;2024-01-30T07:35:08;23.75;;;17.25;;
40755;SDS011;26461;45.630;9.418;2024-01-30T07:38:18;25.30;;;17.95;;
40755;SDS011;26461;45.630;9.418;2024-01-30T07:41:28;25.35;;;16.30;;
40755;SDS011;26461;45.630;9.418;2024-01-30T07:44:38;21.70;;;14.75;;
40755;SDS011;26461;45.630;9.418;2024-01-30T07:47:49;22.83;;;16.95;;
40755;SDS011;26461;45.630;9.418;2024-01-30T07:50:59;24.83;;;14.27;;
40755;SDS011;26461;45.630;9.418;2024-01-30T07:54:12;24.13;;;16.38;;
40755;SDS011;26461;45.630;9.418;2024-01-30T07:57:19;23.33;;;16.30;;
40755;SDS011;26461;45.630;9.418;2024-01-30T08:00:24;22.90;;;15.18;;
40755;SDS011;26461;45.630;9.418;2024-01-30T08:03:34;24.08;;;15.63;;
40755;SDS011;26461;45.630;9.418;2024-01-30T08:06:45;27.05;;;16.60;;
40755;SDS011;26461;45.630;9.418;2024-01-30T08:09:55;23.25;;;14.30;;
40755;SDS011;26461;45.630;9.418;2024-01-30T08:13:05;24.45;;;16.65;;
40755;SDS011;26461;45.630;9.418;2024-01-30T08:16:15;24.75;;;18.15;;
40755;SDS011;26461;45.630;9.418;2024-01-30T08:19:24;27.25;;;18.75;;
40755;SDS011;26461;45.630;9.418;2024-01-30T08:22:34;31.95;;;21.13;;
40755;SDS011;26461;45.630;9.418;2024-01-30T08:25:44;24.38;;;17.77;;
40755;SDS011;26461;45.630;9.418;2024-01-30T08:28:49;24.23;;;17.70;;
40755;SDS011;26461;45.630;9.418;2024-01-30T08:31:59;28.65;;;20.45;;
40755;SDS011;26461;45.630;9.418;2024-01-30T08:35:09;38.95;;;20.55;;
40755;SDS011;26461;45.630;9.418;2024-01-30T08:38:17;28.58;;;18.65;;
40755;SDS011;26461;45.630;9.418;2024-01-30T08:41:27;34.90;;;20.38;;
40755;SDS011;26461;45.630;9.418;2024-01-30T08:44:32;26.05;;;17.20;;
40755;SDS011;26461;45.630;9.418;2024-01-30T08:47:42;30.13;;;18.75;;
40755;SDS011;26461;45.630;9.418;2024-01-30T08:50:52;37.00;;;21.15;;
40755;SDS011;26461;45.630;9.418;2024-01-30T08:54:02;29.77;;;18.65;;
40755;SDS011;26461;45.630;9.418;2024-01-30T08:57:12;28.45;;;18.02;;
40755;SDS011;26461;45.630;9.418;2024-01-30T09:00:22;32.00;;;18.55;;
40755;SDS011;26461;45.630;9.418;2024-01-30T09:03:32;32.80;;;20.13;;
40755;SDS011;26461;45.630;9.418;2024-01-30T09:06:38;28.55;;;18.10;;
40755;SDS011;26461;45.630;9.418;2024-01-30T09:09:48;26.88;;;18.20;;
40755;SDS011;26461;45.630;9.418;2024-01-30T09:12:58;22.60;;;16.27;;
40755;SDS011;26461;45.630;9.418;2024-01-30T09:16:08;25.70;;;18.60;;
40755;SDS011;26461;45.630;9.418;2024-01-30T09:19:18;29.95;;;18.80;;
40755;SDS011;26461;45.630;9.418;2024-01-30T09:22:23;27.70;;;18.02;;
40755;SDS011;26461;45.630;9.418;2024-01-30T09:25:33;29.98;;;18.92;;
40755;SDS011;26461;45.630;9.418;2024-01-30T09:28:43;29.35;;;18.90;;
40755;SDS011;26461;45.630;9.418;2024-01-30T09:31:49;29.65;;;20.02;;
40755;SDS011;26461;45.630;9.418;2024-01-30T09:34:59;37.17;;;24.40;;
40755;SDS011;26461;45.630;9.418;2024-01-30T09:38:09;33.60;;;21.85;;
40755;SDS011;26461;45.630;9.418;2024-01-30T09:41:15;39.58;;;24.60;;
40755;SDS011;26461;45.630;9.418;2024-01-30T09:44:21;38.97;;;24.10;;
40755;SDS011;26461;45.630;9.418;2024-01-30T09:47:27;33.67;;;25.88;;
40755;SDS011;26461;45.630;9.418;2024-01-30T09:50:37;35.53;;;23.38;;
40755;SDS011;26461;45.630;9.418;2024-01-30T09:53:43;34.58;;;23.17;;
40755;SDS011;26461;45.630;9.418;2024-01-30T09:56:49;40.78;;;24.90;;
40755;SDS011;26461;45.630;9.418;2024-01-30T09:59:59;40.10;;;25.20;;
40755;SDS011;26461;45.630;9.418;2024-01-30T10:03:15;36.33;;;23.40;;
40755;SDS011;26461;45.630;9.418;2024-01-30T10:06:20;29.98;;;20.35;;
40755;SDS011;26461;45.630;9.418;2024-01-30T10:09:27;37.50;;;25.27;;
40755;SDS011;26461;45.630;9.418;2024-01-30T10:12:32;38.22;;;22.48;;
40755;SDS011;26461;45.630;9.418;2024-01-30T10:15:42;35.67;;;23.08;;
40755;SDS011;26461;45.630;9.418;2024-01-30T10:18:51;33.47;;;23.95;;
40755;SDS011;26461;45.630;9.418;2024-01-30T10:22:01;41.13;;;23.90;;
40755;SDS011;26461;45.630;9.418;2024-01-30T10:25:12;37.72;;;25.80;;
40755;SDS011;26461;45.630;9.418;2024-01-30T10:28:22;50.45;;;25.80;;
40755;SDS011;26461;45.630;9.418;2024-01-30T10:31:27;42.70;;;26.65;;
40755;SDS011;26461;45.630;9.418;2024-01-30T10:34:37;36.35;;;24.58;;
40755;SDS011;26461;45.630;9.418;2024-01-30T10:37:47;49.47;;;29.40;;
40755;SDS011;26461;45.630;9.418;2024-01-30T10:41:01;52.03;;;32.50;;
40755;SDS011;26461;45.630;9.418;2024-01-30T10:44:08;50.22;;;31.15;;
40755;SDS011;26461;45.630;9.418;2024-01-30T10:47:28;42.85;;;28.25;;
40755;SDS011;26461;45.630;9.418;2024-01-30T10:50:38;45.90;;;30.75;;
40755;SDS011;26461;45.630;9.418;2024-01-30T10:53:51;51.60;;;31.08;;
40755;SDS011;26461;45.630;9.418;2024-01-30T10:57:02;47.53;;;31.90;;
40755;SDS011;26461;45.630;9.418;2024-01-30T11:00:14;52.92;;;34.20;;
40755;SDS011;26461;45.630;9.418;2024-01-30T11:03:24;52.92;;;35.05;;
40755;SDS011;26461;45.630;9.418;2024-01-30T11:06:40;49.78;;;33.35;;
40755;SDS011;26461;45.630;9.418;2024-01-30T11:09:52;45.45;;;30.92;;
40755;SDS011;26461;45.630;9.418;2024-01-30T11:13:09;47.42;;;33.22;;
40755;SDS011;26461;45.630;9.418;2024-01-30T11:16:15;43.65;;;27.67;;
40755;SDS011;26461;45.630;9.418;2024-01-30T11:19:30;36.38;;;24.70;;
40755;SDS011;26461;45.630;9.418;2024-01-30T11:22:36;44.20;;;25.40;;
40755;SDS011;26461;45.630;9.418;2024-01-30T11:25:46;39.10;;;24.70;;
40755;SDS011;26461;45.630;9.418;2024-01-30T11:28:56;35.05;;;21.70;;
40755;SDS011;26461;45.630;9.418;2024-01-30T11:32:06;34.70;;;21.48;;
40755;SDS011;26461;45.630;9.418;2024-01-30T11:35:17;44.60;;;27.67;;
40755;SDS011;26461;45.630;9.418;2024-01-30T11:38:22;40.03;;;24.02;;
40755;SDS011;26461;45.630;9.418;2024-01-30T11:41:35;42.65;;;24.02;;
40755;SDS011;26461;45.630;9.418;2024-01-30T11:44:46;37.20;;;23.13;;
40755;SDS011;26461;45.630;9.418;2024-01-30T11:47:57;44.13;;;25.30;;
40755;SDS011;26461;45.630;9.418;2024-01-30T11:51:09;36.88;;;23.52;;
40755;SDS011;26461;45.630;9.418;2024-01-30T11:54:21;30.33;;;21.00;;
40755;SDS011;26461;45.630;9.418;2024-01-30T11:57:32;45.42;;;24.90;;
40755;SDS011;26461;45.630;9.418;2024-01-30T12:00:41;38.22;;;22.35;;
40755;SDS011;26461;45.630;9.418;2024-01-30T12:03:52;38.15;;;22.45;;
40755;SDS011;26461;45.630;9.418;2024-01-30T12:07:02;39.08;;;24.00;;
40755;SDS011;26461;45.630;9.418;2024-01-30T12:10:13;38.45;;;25.13;;
40755;SDS011;26461;45.630;9.418;2024-01-30T12:13:18;42.28;;;24.15;;
40755;SDS011;26461;45.630;9.418;2024-01-30T12:16:28;40.97;;;23.48;;
40755;SDS011;26461;45.630;9.418;2024-01-30T12:19:38;39.15;;;25.13;;
40755;SDS011;26461;45.630;9.418;2024-01-30T12:22:48;37.08;;;23.08;;
40755;SDS011;26461;45.630;9.418;2024-01-30T12:25:59;37.55;;;22.83;;
40755;SDS011;26461;45.630;9.418;2024-01-30T12:29:10;40.20;;;21.38;;
40755;SDS011;26461;45.630;9.418;2024-01-30T12:32:15;40.13;;;23.13;;
40755;SDS011;26461;45.630;9.418;2024-01-30T12:35:26;39.72;;;26.00;;
40755;SDS011;26461;45.630;9.418;2024-01-30T12:38:36;39.47;;;25.60;;
40755;SDS011;26461;45.630;9.418;2024-01-30T12:41:46;48.67;;;27.52;;
40755;SDS011;26461;45.630;9.418;2024-01-30T12:44:59;45.45;;;27.42;;
40755;SDS011;26461;45.630;9.418;2024-01-30T12:48:04;41.90;;;28.05;;
40755;SDS011;26461;45.630;9.418;2024-01-30T12:51:10;47.80;;;29.77;;
40755;SDS011;26461;45.630;9.418;2024-01-30T12:54:19;46.35;;;29.95;;
40755;SDS011;26461;45.630;9.418;2024-01-30T12:57:29;49.47;;;31.50;;
40755;SDS011;26461;45.630;9.418;2024-01-30T13:00:34;51.30;;;32.60;;
40755;SDS011;26461;45.630;9.418;2024-01-30T13:03:45;47.30;;;31.52;;
40755;SDS011;26461;45.630;9.418;2024-01-30T13:06:50;45.03;;;27.00;;
40755;SDS011;26461;45.630;9.418;2024-01-30T13:10:00;50.25;;;31.35;;
40755;SDS011;26461;45.630;9.418;2024-01-30T13:13:12;51.25;;;30.33;;
40755;SDS011;26461;45.630;9.418;2024-01-30T13:16:17;39.22;;;26.88;;
40755;SDS011;26461;45.630;9.418;2024-01-30T13:19:22;49.15;;;31.23;;
40755;SDS011;26461;45.630;9.418;2024-01-30T13:22:27;48.55;;;32.40;;
40755;SDS011;26461;45.630;9.418;2024-01-30T13:25:32;50.63;;;33.30;;
40755;SDS011;26461;45.630;9.418;2024-01-30T13:28:37;53.60;;;33.78;;
40755;SDS011;26461;45.630;9.418;2024-01-30T13:31:43;53.60;;;34.45;;
40755;SDS011;26461;45.630;9.418;2024-01-30T13:34:48;56.60;;;33.25;;
40755;SDS011;26461;45.630;9.418;2024-01-30T13:37:53;53.38;;;34.30;;
40755;SDS011;26461;45.630;9.418;2024-01-30T13:40:58;51.08;;;33.25;;
40755;SDS011;26461;45.630;9.418;2024-01-30T13:44:08;49.80;;;33.83;;
40755;SDS011;26461;45.630;9.418;2024-01-30T13:47:13;52.72;;;35.70;;
40755;SDS011;26461;45.630;9.418;2024-01-30T13:50:18;51.53;;;34.78;;
40755;SDS011;26461;45.630;9.418;2024-01-30T13:53:22;57.67;;;36.47;;
40755;SDS011;26461;45.630;9.418;2024-01-30T13:56:27;51.25;;;32.97;;
40755;SDS011;26461;45.630;9.418;2024-01-30T13:59:34;53.78;;;34.75;;
40755;SDS011;26461;45.630;9.418;2024-01-30T14:02:39;49.85;;;31.48;;
40755;SDS011;26461;45.630;9.418;2024-01-30T14:05:44;52.50;;;32.92;;
40755;SDS011;26461;45.630;9.418;2024-01-30T14:08:49;48.55;;;33.10;;
40755;SDS011;26461;45.630;9.418;2024-01-30T14:11:54;51.63;;;35.13;;
40755;SDS011;26461;45.630;9.418;2024-01-30T14:14:58;55.85;;;34.40;;
40755;SDS011;26461;45.630;9.418;2024-01-30T14:18:04;56.22;;;34.17;;
40755;SDS011;26461;45.630;9.418;2024-01-30T14:21:14;54.10;;;36.55;;
40755;SDS011;26461;45.630;9.418;2024-01-30T14:24:19;62.03;;;37.75;;
40755;SDS011;26461;45.630;9.418;2024-01-30T14:27:32;53.90;;;35.05;;
40755;SDS011;26461;45.630;9.418;2024-01-30T14:30:40;58.20;;;36.33;;
40755;SDS011;26461;45.630;9.418;2024-01-30T14:33:52;47.03;;;31.48;;
40755;SDS011;26461;45.630;9.418;2024-01-30T14:36:59;49.40;;;33.15;;
40755;SDS011;26461;45.630;9.418;2024-01-30T14:40:05;51.05;;;31.85;;
40755;SDS011;26461;45.630;9.418;2024-01-30T14:43:16;40.13;;;28.58;;
40755;SDS011;26461;45.630;9.418;2024-01-30T14:46:28;43.10;;;26.45;;
40755;SDS011;26461;45.630;9.418;2024-01-30T14:49:34;44.80;;;26.92;;
40755;SDS011;26461;45.630;9.418;2024-01-30T14:52:47;43.72;;;29.05;;
40755;SDS011;26461;45.630;9.418;2024-01-30T14:55:52;38.95;;;25.42;;
40755;SDS011;26461;45.630;9.418;2024-01-30T14:58:59;40.15;;;27.05;;
40755;SDS011;26461;45.630;9.418;2024-01-30T15:02:05;44.10;;;26.15;;
40755;SDS011;26461;45.630;9.418;2024-01-30T15:05:11;39.97;;;24.45;;
40755;SDS011;26461;45.630;9.418;2024-01-30T15:08:16;42.97;;;28.45;;
40755;SDS011;26461;45.630;9.418;2024-01-30T15:11:26;61.53;;;33.85;;
40755;SDS011;26461;45.630;9.418;2024-01-30T15:14:36;55.45;;;34.05;;
40755;SDS011;26461;45.630;9.418;2024-01-30T15:17:41;54.10;;;35.35;;
40755;SDS011;26461;45.630;9.418;2024-01-30T15:20:47;58.58;;;35.83;;
40755;SDS011;26461;45.630;9.418;2024-01-30T15:23:51;59.10;;;35.17;;
40755;SDS011;26461;45.630;9.418;2024-01-30T15:27:01;62.63;;;36.42;;
40755;SDS011;26461;45.630;9.418;2024-01-30T15:30:07;59.45;;;38.47;;
40755;SDS011;26461;45.630;9.418;2024-01-30T15:33:17;53.10;;;36.10;;
40755;SDS011;26461;45.630;9.418;2024-01-30T15:36:46;58.45;;;38.92;;
40755;SDS011;26461;45.630;9.418;2024-01-30T15:39:56;56.35;;;38.00;;
40755;SDS011;26461;45.630;9.418;2024-01-30T15:43:01;65.25;;;38.13;;
40755;SDS011;26461;45.630;9.418;2024-01-30T15:46:06;61.03;;;37.33;;
40755;SDS011;26461;45.630;9.418;2024-01-30T15:49:30;56.13;;;37.95;;
40755;SDS011;26461;45.630;9.418;2024-01-30T15:52:59;60.85;;;39.20;;
40755;SDS011;26461;45.630;9.418;2024-01-30T15:56:28;60.13;;;37.65;;
40755;SDS011;26461;45.630;9.418;2024-01-30T15:59:52;66.38;;;42.15;;
40755;SDS011;26461;45.630;9.418;2024-01-30T16:03:16;62.97;;;40.17;;
40755;SDS011;26461;45.630;9.418;2024-01-30T16:06:45;62.38;;;40.10;;
40755;SDS011;26461;45.630;9.418;2024-01-30T16:09:54;59.22;;;40.60;;
40755;SDS011;26461;45.630;9.418;2024-01-30T16:13:04;62.17;;;39.53;;
40755;SDS011;26461;45.630;9.418;2024-01-30T16:16:09;64.80;;;37.22;;
40755;SDS011;26461;45.630;9.418;2024-01-30T16:19:39;60.10;;;36.90;;
40755;SDS011;26461;45.630;9.418;2024-01-30T16:23:09;63.72;;;35.58;;
40755;SDS011;26461;45.630;9.418;2024-01-30T16:26:37;61.13;;;36.83;;
40755;SDS011;26461;45.630;9.418;2024-01-30T16:29:49;55.60;;;35.75;;
40755;SDS011;26461;45.630;9.418;2024-01-30T16:32:59;64.38;;;39.10;;
40755;SDS011;26461;45.630;9.418;2024-01-30T16:36:25;59.47;;;37.08;;
40755;SDS011;26461;45.630;9.418;2024-01-30T16:39:50;71.97;;;40.58;;
40755;SDS011;26461;45.630;9.418;2024-01-30T16:42:57;63.78;;;38.13;;
40755;SDS011;26461;45.630;9.418;2024-01-30T16:46:21;57.33;;;36.45;;
40755;SDS011;26461;45.630;9.418;2024-01-30T16:49:45;68.72;;;39.00;;
40755;SDS011;26461;45.630;9.418;2024-01-30T16:53:16;57.70;;;38.25;;
40755;SDS011;26461;45.630;9.418;2024-01-30T16:56:22;57.85;;;37.58;;
40755;SDS011;26461;45.630;9.418;2024-01-30T16:59:28;56.15;;;37.45;;
40755;SDS011;26461;45.630;9.418;2024-01-30T17:02:53;55.13;;;33.95;;
40755;SDS011;26461;45.630;9.418;2024-01-30T17:06:19;59.08;;;36.05;;
40755;SDS011;26461;45.630;9.418;2024-01-30T17:09:45;59.13;;;36.03;;
40755;SDS011;26461;45.630;9.418;2024-01-30T17:13:13;55.15;;;34.47;;
40755;SDS011;26461;45.630;9.418;2024-01-30T17:16:18;55.38;;;35.00;;
40755;SDS011;26461;45.630;9.418;2024-01-30T17:19:49;53.83;;;35.63;;
40755;SDS011;26461;45.630;9.418;2024-01-30T17:23:12;63.13;;;38.20;;
40755;SDS011;26461;45.630;9.418;2024-01-30T17:26:37;56.15;;;34.55;;
40755;SDS011;26461;45.630;9.418;2024-01-30T17:30:03;74.10;;;38.33;;
40755;SDS011;26461;45.630;9.418;2024-01-30T17:33:33;55.38;;;36.90;;
40755;SDS011;26461;45.630;9.418;2024-01-30T17:37:03;54.90;;;37.03;;
40755;SDS011;26461;45.630;9.418;2024-01-30T17:40:32;70.95;;;45.42;;
40755;SDS011;26461;45.630;9.418;2024-01-30T17:43:37;63.10;;;37.53;;
40755;SDS011;26461;45.630;9.418;2024-01-30T17:47:07;67.82;;;39.55;;
40755;SDS011;26461;45.630;9.418;2024-01-30T17:50:19;64.85;;;39.92;;
40755;SDS011;26461;45.630;9.418;2024-01-30T17:53:30;60.05;;;36.92;;
40755;SDS011;26461;45.630;9.418;2024-01-30T17:56:59;59.55;;;35.60;;
40755;SDS011;26461;45.630;9.418;2024-01-30T18:00:29;53.92;;;33.20;;
40755;SDS011;26461;45.630;9.418;2024-01-30T18:03:53;49.60;;;30.77;;
40755;SDS011;26461;45.630;9.418;2024-01-30T18:07:05;54.20;;;34.22;;
40755;SDS011;26461;45.630;9.418;2024-01-30T18:10:10;57.15;;;35.85;;
40755;SDS011;26461;45.630;9.418;2024-01-30T18:13:41;51.30;;;31.70;;
40755;SDS011;26461;45.630;9.418;2024-01-30T18:16:46;65.93;;;34.50;;
40755;SDS011;26461;45.630;9.418;2024-01-30T18:20:10;54.15;;;31.10;;
40755;SDS011;26461;45.630;9.418;2024-01-30T18:23:39;61.22;;;39.28;;
40755;SDS011;26461;45.630;9.418;2024-01-30T18:26:44;52.55;;;32.55;;
40755;SDS011;26461;45.630;9.418;2024-01-30T18:29:54;49.60;;;31.25;;
40755;SDS011;26461;45.630;9.418;2024-01-30T18:33:04;44.50;;;27.55;;